Time;durP1;ratioP1;P1;durP2;ratioP2;P2;SDS_P1;SDS_P2;PMS_P1;PMS_P2;Temp;Humidity;BMP_temperature;BMP_pressure;BME280_temperature;BME280_humidity;BME280_pressure;Samples;Min_cycle;Max_cycle;Signal;HPM_P1;HPM_P2
2023/01/06 00:00:19;;;;;;;3.90;2.47;;;12.70;99.90;;;;;;4591630;19;20020;-29
2023/01/06 00:02:10;;;;;;;4.77;2.83;;;12.70;99.90;;;;;;4588995;19;20082;-31
2023/01/06 00:03:42;;;;;;;5.57;2.45;;;12.70;99.90;;;;;;4591301;19;20090;-32
2023/01/06 00:05:13;;;;;;;3.58;2.20;;;12.70;99.90;;;;;;4590853;19;20015;-35
2023/01/06 00:06:45;;;;;;;4.13;2.22;;;12.70;99.90;;;;;;4591754;19;20524;-32
2023/01/06 00:08:16;;;;;;;3.42;2.40;;;12.70;99.90;;;;;;4591552;19;20417;-35
2023/01/06 00:11:37;;;;;;;3.57;2.00;;;12.70;99.90;;;;;;4591475;19;20006;-30
2023/01/06 00:13:08;;;;;;;5.53;2.80;;;12.70;99.90;;;;;;4591870;19;20036;-28
2023/01/06 00:14:41;;;;;;;4.20;2.55;;;12.70;99.90;;;;;;4591552;19;20459;-29
2023/01/06 00:16:14;;;;;;;4.57;2.53;;;12.70;99.90;;;;;;4591123;19;20447;-28
2023/01/06 00:17:46;;;;;;;3.73;2.53;;;12.70;99.90;;;;;;4591720;19;20366;-27
2023/01/06 00:19:17;;;;;;;4.43;2.75;;;12.70;99.90;;;;;;4591425;19;20014;-28
2023/01/06 00:20:48;;;;;;;4.70;2.70;;;12.70;99.90;;;;;;4590979;19;20010;-35
2023/01/06 00:22:20;;;;;;;4.88;2.20;;;12.70;99.90;;;;;;4591023;19;20018;-28
2023/01/06 00:23:51;;;;;;;4.45;2.40;;;12.70;99.90;;;;;;4589968;19;20105;-28
2023/01/06 00:25:23;;;;;;;3.47;2.30;;;12.70;99.90;;;;;;4589365;19;20002;-28
2023/01/06 00:26:55;;;;;;;4.70;2.47;;;12.70;99.90;;;;;;4590446;19;20443;-28
2023/01/06 00:28:26;;;;;;;3.78;2.05;;;12.70;99.90;;;;;;4591216;19;20011;-28
2023/01/06 00:29:57;;;;;;;4.05;2.47;;;12.70;99.90;;;;;;4590780;19;20018;-28
2023/01/06 00:31:28;;;;;;;3.70;2.35;;;12.70;99.90;;;;;;4591820;19;19999;-28
2023/01/06 00:33:00;;;;;;;4.28;2.22;;;12.60;99.90;;;;;;4590272;19;20011;-29
2023/01/06 00:34:31;;;;;;;3.55;2.33;;;12.60;99.90;;;;;;4590735;19;20467;-29
2023/01/06 00:36:02;;;;;;;3.03;1.98;;;12.70;99.90;;;;;;4589714;19;20093;-29
2023/01/06 00:37:34;;;;;;;4.07;2.95;;;12.70;99.90;;;;;;4590466;19;20021;-28
2023/01/06 00:39:05;;;;;;;4.38;2.13;;;12.70;99.90;;;;;;4589709;19;20006;-29
2023/01/06 00:40:36;;;;;;;4.40;2.10;;;12.70;99.90;;;;;;4590529;19;20013;-31
2023/01/06 00:42:08;;;;;;;4.00;2.13;;;12.70;99.90;;;;;;4591124;19;20007;-28
2023/01/06 00:43:39;;;;;;;3.50;2.28;;;12.70;99.90;;;;;;4590482;19;20010;-29
2023/01/06 00:45:10;;;;;;;4.90;3.03;;;12.70;99.90;;;;;;4590323;19;20010;-30
2023/01/06 00:46:41;;;;;;;3.83;2.28;;;12.70;99.90;;;;;;4591135;19;20002;-28
2023/01/06 00:48:12;;;;;;;3.67;2.35;;;12.70;99.90;;;;;;4588610;19;20010;-30
2023/01/06 00:49:44;;;;;;;4.40;2.50;;;12.70;99.90;;;;;;4589139;19;20585;-28
2023/01/06 00:51:15;;;;;;;3.95;2.55;;;12.70;99.90;;;;;;4590284;19;20042;-28
2023/01/06 00:52:49;;;;;;;3.47;2.42;;;12.70;99.90;;;;;;4590663;19;20037;-28
2023/01/06 00:54:20;;;;;;;4.77;2.30;;;12.70;99.90;;;;;;4591149;19;20462;-28
2023/01/06 00:55:59;;;;;;;4.63;2.40;;;12.70;99.90;;;;;;4590622;19;20014;-29
2023/01/06 00:57:30;;;;;;;3.37;2.47;;;12.70;99.90;;;;;;4590242;19;20344;-28
2023/01/06 00:59:01;;;;;;;4.15;2.35;;;12.60;99.90;;;;;;4589802;19;20433;-28
2023/01/06 01:00:33;;;;;;;3.07;1.97;;;12.70;99.90;;;;;;4590434;19;20011;-32
2023/01/06 01:02:04;;;;;;;3.60;2.45;;;12.70;99.90;;;;;;4590620;19;20070;-29
2023/01/06 01:03:36;;;;;;;3.90;2.55;;;12.70;99.90;;;;;;4590580;19;20041;-28
2023/01/06 01:05:08;;;;;;;3.97;2.10;;;12.70;99.90;;;;;;4588952;19;20015;-28
2023/01/06 01:06:40;;;;;;;3.42;2.15;;;12.70;99.90;;;;;;4589961;19;20037;-28
2023/01/06 01:08:11;;;;;;;4.00;2.50;;;12.70;99.90;;;;;;4589029;19;20464;-28
2023/01/06 01:09:42;;;;;;;4.43;2.33;;;12.70;99.90;;;;;;4589918;19;20500;-29
2023/01/06 01:12:08;;;;;;;3.70;2.42;;;12.60;99.90;;;;;;4590918;19;20525;-30
2023/01/06 01:13:05;;;;;;;5.07;2.77;;;12.70;99.90;;;;;;4590137;19;20461;-29
2023/01/06 01:14:37;;;;;;;4.38;2.75;;;12.70;99.90;;;;;;4590071;19;20413;-28
2023/01/06 01:16:09;;;;;;;3.27;2.30;;;12.60;99.90;;;;;;4588951;19;20514;-28
2023/01/06 01:17:40;;;;;;;3.38;2.35;;;12.60;99.90;;;;;;4590156;19;20010;-30
2023/01/06 01:19:11;;;;;;;5.20;2.85;;;12.70;99.90;;;;;;4589955;19;20363;-30
2023/01/06 01:20:45;;;;;;;3.25;2.38;;;12.60;99.90;;;;;;4590267;19;20019;-28
2023/01/06 01:22:16;;;;;;;3.97;2.57;;;12.60;99.90;;;;;;4592191;19;20120;-28
2023/01/06 01:23:48;;;;;;;3.37;2.13;;;12.60;99.90;;;;;;4595350;19;20010;-29
2023/01/06 01:25:19;;;;;;;3.58;2.15;;;12.60;99.90;;;;;;4593966;19;20033;-29
2023/01/06 01:26:50;;;;;;;3.90;2.50;;;12.60;99.90;;;;;;4594498;19;20014;-28
2023/01/06 01:28:22;;;;;;;3.30;2.45;;;12.60;99.90;;;;;;4595474;19;20468;-28
2023/01/06 01:29:53;;;;;;;3.22;1.92;;;12.60;99.90;;;;;;4595141;19;20010;-28
2023/01/06 01:31:24;;;;;;;3.28;2.33;;;12.60;99.90;;;;;;4594620;19;20011;-28
2023/01/06 01:32:55;;;;;;;3.10;2.30;;;12.60;99.90;;;;;;4593931;19;20014;-28
2023/01/06 01:34:27;;;;;;;4.13;2.80;;;12.60;99.90;;;;;;4594011;19;20007;-29
2023/01/06 01:36:04;;;;;;;3.97;2.20;;;12.60;99.90;;;;;;4594129;19;20074;-30
2023/01/06 01:37:36;;;;;;;3.63;2.20;;;12.60;99.90;;;;;;4592051;19;20010;-29
2023/01/06 01:39:07;;;;;;;3.20;2.22;;;12.60;99.90;;;;;;4592468;19;20022;-28
2023/01/06 01:40:38;;;;;;;4.18;2.50;;;12.60;99.90;;;;;;4592249;19;20033;-30
2023/01/06 01:42:17;;;;;;;10.77;6.95;;;12.60;99.90;;;;;;4592059;19;20075;-31
2023/01/06 01:43:56;;;;;;;4.10;2.70;;;12.60;99.90;;;;;;4592198;19;20066;-29
2023/01/06 01:45:28;;;;;;;5.77;3.50;;;12.60;99.90;;;;;;4591750;19;20492;-29
2023/01/06 01:46:59;;;;;;;5.97;4.50;;;12.60;99.90;;;;;;4592396;19;20029;-30
2023/01/06 01:48:32;;;;;;;5.97;4.07;;;12.70;99.90;;;;;;4592444;19;20039;-29
2023/01/06 01:50:26;;;;;;;5.77;3.27;;;12.60;99.90;;;;;;4591915;19;20017;-28
2023/01/06 01:51:57;;;;;;;5.13;3.60;;;12.60;99.90;;;;;;4592034;19;20543;-29
2023/01/06 01:53:35;;;;;;;6.35;3.78;;;12.60;99.90;;;;;;4591865;19;20006;-28
2023/01/06 01:55:06;;;;;;;5.07;3.47;;;12.60;99.90;;;;;;4591783;19;20414;-29
2023/01/06 01:56:43;;;;;;;5.20;3.53;;;12.60;99.90;;;;;;4591700;19;20010;-29
2023/01/06 01:58:20;;;;;;;5.63;3.60;;;12.60;99.90;;;;;;4592053;19;20035;-28
2023/01/06 01:59:51;;;;;;;5.40;3.77;;;12.60;99.90;;;;;;4591633;19;20082;-29
2023/01/06 02:01:23;;;;;;;5.22;3.63;;;12.60;99.90;;;;;;4592237;19;20130;-28
2023/01/06 02:02:54;;;;;;;5.13;3.13;;;12.60;99.90;;;;;;4591688;19;20469;-28
2023/01/06 02:04:26;;;;;;;4.25;2.97;;;12.60;99.90;;;;;;4591959;19;20003;-29
2023/01/06 02:06:00;;;;;;;4.63;2.65;;;12.60;99.90;;;;;;4590102;19;20017;-30
2023/01/06 02:07:31;;;;;;;4.47;2.70;;;12.60;99.90;;;;;;4592317;19;20050;-29
2023/01/06 02:09:09;;;;;;;4.40;2.72;;;12.60;99.90;;;;;;4591555;19;20029;-29
2023/01/06 02:10:40;;;;;;;4.13;2.53;;;12.60;99.90;;;;;;4591422;19;20385;-29
2023/01/06 02:12:11;;;;;;;4.35;2.88;;;12.60;99.90;;;;;;4591669;19;20074;-31
2023/01/06 02:13:43;;;;;;;4.55;2.45;;;12.70;99.90;;;;;;4592106;19;20023;-29
2023/01/06 02:15:26;;;;;;;7.13;3.80;;;12.60;99.90;;;;;;4591306;19;20083;-30
2023/01/06 02:17:30;;;;;;;6.03;3.00;;;12.60;99.90;;;;;;4591256;19;20011;-28
2023/01/06 02:19:01;;;;;;;5.17;3.23;;;12.60;99.90;;;;;;4591332;19;20385;-30
2023/01/06 02:20:56;;;;;;;6.85;3.30;;;12.60;99.90;;;;;;4591721;19;20433;-29
2023/01/06 02:23:01;;;;;;;3.80;2.77;;;12.60;99.90;;;;;;4591156;19;20011;-31
2023/01/06 02:24:40;;;;;;;4.23;2.70;;;12.60;99.90;;;;;;4591562;19;20024;-30
2023/01/06 02:26:33;;;;;;;4.73;2.60;;;12.60;99.90;;;;;;4590498;19;20429;-31
2023/01/06 02:28:22;;;;;;;4.72;2.85;;;12.60;99.90;;;;;;4591635;19;20017;-31
2023/01/06 02:30:32;;;;;;;5.07;3.20;;;12.60;99.90;;;;;;4592672;19;20041;-29
2023/01/06 02:32:27;;;;;;;4.00;2.70;;;12.60;99.90;;;;;;4593374;19;20520;-29
2023/01/06 02:34:22;;;;;;;4.77;3.00;;;12.60;99.90;;;;;;4591580;19;20069;-28
2023/01/06 02:36:23;;;;;;;5.20;3.13;;;12.60;99.90;;;;;;4593400;19;20018;-29
2023/01/06 02:38:22;;;;;;;4.77;3.03;;;12.60;99.90;;;;;;4590899;19;20033;-29
2023/01/06 02:40:04;;;;;;;4.77;3.10;;;12.60;99.90;;;;;;4590941;19;20060;-28
2023/01/06 02:41:45;;;;;;;7.23;3.50;;;12.60;99.90;;;;;;4590909;19;20334;-29
2023/01/06 02:43:24;;;;;;;5.80;3.50;;;12.60;99.90;;;;;;4591108;19;20006;-29
2023/01/06 02:45:09;;;;;;;5.93;3.40;;;12.60;99.90;;;;;;4590901;19;20580;-28
2023/01/06 02:47:12;;;;;;;5.80;3.50;;;12.70;99.90;;;;;;4591258;19;20546;-28
2023/01/06 02:48:50;;;;;;;6.23;3.70;;;12.70;99.90;;;;;;4590553;19;20015;-28
2023/01/06 02:50:46;;;;;;;6.43;3.40;;;12.60;99.90;;;;;;4590871;19;20015;-29
2023/01/06 02:52:42;;;;;;;6.10;3.77;;;12.70;99.90;;;;;;4590776;19;20022;-29
2023/01/06 02:54:34;;;;;;;4.53;3.40;;;12.70;99.90;;;;;;4590527;19;20433;-28
2023/01/06 02:56:05;;;;;;;3.40;2.50;;;12.70;99.90;;;;;;4590508;19;20017;-28
2023/01/06 02:57:48;;;;;;;5.65;3.35;;;12.70;99.90;;;;;;4590976;19;20010;-30
2023/01/06 02:59:25;;;;;;;4.27;2.93;;;12.60;99.90;;;;;;4591051;19;20003;-30
2023/01/06 03:01:36;;;;;;;3.67;2.27;;;12.60;99.90;;;;;;4590559;19;20034;-29
2023/01/06 03:03:09;;;;;;;4.87;3.13;;;12.60;99.90;;;;;;4590082;19;20487;-30
2023/01/06 03:04:42;;;;;;;5.00;3.17;;;12.60;99.90;;;;;;4590105;19;21058;-29
2023/01/06 03:06:16;;;;;;;4.17;3.13;;;12.60;99.90;;;;;;4588869;19;20461;-30
2023/01/06 03:07:47;;;;;;;5.77;3.33;;;12.60;99.90;;;;;;4590773;19;20003;-29
2023/01/06 03:09:22;;;;;;;5.47;3.78;;;12.60;99.90;;;;;;4590195;19;20445;-28
2023/01/06 03:10:53;;;;;;;5.13;3.23;;;12.60;99.90;;;;;;4590113;19;20101;-29
2023/01/06 03:12:55;;;;;;;6.15;3.40;;;12.60;99.90;;;;;;4590592;19;20027;-28
2023/01/06 03:14:36;;;;;;;5.60;3.55;;;12.60;99.90;;;;;;4590045;19;20030;-28
2023/01/06 03:16:07;;;;;;;6.20;4.00;;;12.60;99.90;;;;;;4590379;19;20101;-28
2023/01/06 03:17:39;;;;;;;5.43;3.10;;;12.60;99.90;;;;;;4590320;19;20032;-27
2023/01/06 03:19:10;;;;;;;5.57;3.30;;;12.60;99.90;;;;;;4590185;19;20010;-28
2023/01/06 03:20:41;;;;;;;4.93;3.20;;;12.70;99.90;;;;;;4590305;19;20011;-29
2023/01/06 03:22:12;;;;;;;4.53;2.67;;;12.60;99.90;;;;;;4589935;19;20021;-28
2023/01/06 03:23:44;;;;;;;2.63;2.13;;;12.60;99.90;;;;;;4589943;19;20015;-28
2023/01/06 03:25:15;;;;;;;3.78;2.63;;;12.70;99.90;;;;;;4589403;19;20015;-29
2023/01/06 03:26:46;;;;;;;2.92;2.53;;;12.60;99.90;;;;;;4590254;19;20011;-29
2023/01/06 03:28:18;;;;;;;3.60;2.47;;;12.70;99.90;;;;;;4589863;19;20070;-31
2023/01/06 03:29:49;;;;;;;2.88;2.10;;;12.60;99.90;;;;;;4589859;19;20563;-28
2023/01/06 03:31:32;;;;;;;2.92;1.98;;;12.60;99.90;;;;;;4590328;19;20027;-28
2023/01/06 03:33:16;;;;;;;2.87;2.07;;;12.60;99.90;;;;;;4589149;19;20094;-29
2023/01/06 03:35:22;;;;;;;3.63;1.93;;;12.60;99.90;;;;;;4590248;19;20014;-29
2023/01/06 03:37:14;;;;;;;3.13;1.90;;;12.60;99.90;;;;;;4588919;19;20018;-29
2023/01/06 03:38:46;;;;;;;2.60;1.80;;;12.60;99.80;;;;;;4589627;19;20404;-29
2023/01/06 03:40:53;;;;;;;3.33;2.00;;;12.60;99.70;;;;;;4589570;19;20018;-28
2023/01/06 03:44:42;;;;;;;2.60;1.43;;;12.60;99.40;;;;;;4588591;19;20469;-28
2023/01/06 03:46:26;;;;;;;2.20;1.40;;;12.60;99.30;;;;;;4588670;19;20022;-31
2023/01/06 03:48:09;;;;;;;2.00;1.60;;;12.60;99.00;;;;;;4589662;19;20413;-28
2023/01/06 03:50:20;;;;;;;1.67;1.23;;;12.60;98.80;;;;;;4590127;19;20393;-28
2023/01/06 03:51:56;;;;;;;2.13;1.57;;;12.60;98.90;;;;;;4589303;19;20543;-29
2023/01/06 03:53:57;;;;;;;2.57;1.47;;;12.60;98.80;;;;;;4589965;19;20377;-27
2023/01/06 03:55:30;;;;;;;2.67;1.70;;;12.60;98.70;;;;;;4589758;19;20035;-28
2023/01/06 03:57:34;;;;;;;2.23;1.50;;;12.60;98.80;;;;;;4589186;19;20471;-30
2023/01/06 03:59:06;;;;;;;2.30;1.70;;;12.60;98.80;;;;;;4588840;19;20789;-28
2023/01/06 04:00:38;;;;;;;1.97;1.57;;;12.60;98.70;;;;;;4589199;19;20345;-28
2023/01/06 04:02:09;;;;;;;2.60;1.63;;;12.60;98.60;;;;;;4589866;19;20970;-29
2023/01/06 04:03:43;;;;;;;2.92;1.40;;;12.60;98.50;;;;;;4588681;19;20074;-30
2023/01/06 04:05:20;;;;;;;3.07;1.80;;;12.60;98.50;;;;;;4588209;19;20015;-28
2023/01/06 04:06:51;;;;;;;3.13;2.07;;;12.60;98.60;;;;;;4586614;19;21194;-30
2023/01/06 04:08:22;;;;;;;2.58;1.80;;;12.60;98.70;;;;;;4589094;19;20445;-28
2023/01/06 04:09:53;;;;;;;2.58;1.80;;;12.60;98.60;;;;;;4588863;19;20007;-30
2023/01/06 04:13:14;;;;;;;3.90;2.30;;;12.60;98.50;;;;;;4588951;19;20006;-29
2023/01/06 04:14:45;;;;;;;2.80;2.08;;;12.60;98.60;;;;;;4589279;19;20433;-28
2023/01/06 04:16:16;;;;;;;3.47;2.55;;;12.60;98.70;;;;;;4588837;19;20055;-30
2023/01/06 04:17:48;;;;;;;3.13;2.00;;;12.60;98.60;;;;;;4588930;19;20014;-30
2023/01/06 04:19:19;;;;;;;3.28;2.38;;;12.60;98.60;;;;;;4589051;19;20013;-29
2023/01/06 04:20:50;;;;;;;2.90;1.98;;;12.60;98.70;;;;;;4588828;19;20015;-28
2023/01/06 04:22:21;;;;;;;3.15;1.80;;;12.60;98.80;;;;;;4588494;19;20074;-29
2023/01/06 04:23:53;;;;;;;4.82;2.10;;;12.60;98.80;;;;;;4588830;19;20034;-28
2023/01/06 04:25:24;;;;;;;3.28;2.25;;;12.60;98.90;;;;;;4589065;19;20006;-28
2023/01/06 04:26:55;;;;;;;3.75;2.70;;;12.60;98.90;;;;;;4588738;19;20028;-29
2023/01/06 04:28:27;;;;;;;2.95;2.10;;;12.60;98.90;;;;;;4588739;19;20010;-30
2023/01/06 04:29:58;;;;;;;3.42;2.10;;;12.60;98.80;;;;;;4588705;19;20015;-28
2023/01/06 04:31:29;;;;;;;3.35;2.22;;;12.60;98.80;;;;;;4588831;19;20002;-28
2023/01/06 04:33:00;;;;;;;2.75;1.90;;;12.60;98.70;;;;;;4588192;19;20025;-30
2023/01/06 04:34:31;;;;;;;2.80;1.92;;;12.60;98.80;;;;;;4588744;19;20011;-30
2023/01/06 04:36:03;;;;;;;2.75;1.98;;;12.60;98.70;;;;;;4589600;19;20026;-28
2023/01/06 04:37:34;;;;;;;3.28;2.22;;;12.60;98.60;;;;;;4591428;19;20039;-29
2023/01/06 04:39:05;;;;;;;2.90;1.77;;;12.60;98.40;;;;;;4590731;19;20080;-28
2023/01/06 04:40:37;;;;;;;2.90;1.90;;;12.60;98.30;;;;;;4590672;19;20014;-28
2023/01/06 04:42:08;;;;;;;3.30;1.85;;;12.60;98.50;;;;;;4591024;19;20029;-29
2023/01/06 04:43:39;;;;;;;2.70;2.13;;;12.60;98.60;;;;;;4591028;19;20463;-29
2023/01/06 04:45:10;;;;;;;3.53;2.22;;;12.60;98.60;;;;;;4590560;19;20472;-29
2023/01/06 04:46:42;;;;;;;3.65;2.10;;;12.60;98.50;;;;;;4591034;19;20026;-28
2023/01/06 04:48:13;;;;;;;4.35;2.97;;;12.60;98.50;;;;;;4589488;19;20353;-28
2023/01/06 04:49:44;;;;;;;3.63;2.80;;;12.60;98.60;;;;;;4590729;19;20078;-29
2023/01/06 04:51:15;;;;;;;4.07;2.72;;;12.60;98.60;;;;;;4589457;19;20010;-28
2023/01/06 04:52:46;;;;;;;4.57;2.90;;;12.60;98.70;;;;;;4590381;19;20014;-28
2023/01/06 04:54:17;;;;;;;5.03;2.90;;;12.60;98.80;;;;;;4591573;19;20037;-28
2023/01/06 04:55:49;;;;;;;4.75;2.63;;;12.60;99.00;;;;;;4591352;19;20077;-29
2023/01/06 04:57:20;;;;;;;4.47;3.08;;;12.60;99.10;;;;;;4589969;19;20031;-32
2023/01/06 04:58:57;;;;;;;3.55;2.75;;;12.60;99.20;;;;;;4592137;19;20117;-30
2023/01/06 05:00:29;;;;;;;4.93;3.23;;;12.70;99.30;;;;;;4592137;19;20035;-31
2023/01/06 05:02:00;;;;;;;3.75;2.83;;;12.70;99.40;;;;;;4590041;19;20532;-30
2023/01/06 05:03:31;;;;;;;4.90;3.58;;;12.70;99.50;;;;;;4591295;19;20011;-31
2023/01/06 05:05:03;;;;;;;4.90;3.30;;;12.70;99.50;;;;;;4590380;19;20018;-28
2023/01/06 05:06:38;;;;;;;4.67;3.10;;;12.70;99.50;;;;;;4588226;19;20022;-28
2023/01/06 05:08:09;;;;;;;6.30;4.17;;;12.70;99.50;;;;;;4589829;19;20786;-30
2023/01/06 05:09:40;;;;;;;10.05;6.15;;;12.70;99.40;;;;;;4590568;19;20019;-29
2023/01/06 05:11:22;;;;;;;11.35;7.50;;;12.70;99.50;;;;;;4590399;19;20035;-29
2023/01/06 05:12:53;;;;;;;9.43;6.35;;;12.70;99.50;;;;;;4590168;19;20415;-28
2023/01/06 05:14:24;;;;;;;9.02;5.88;;;12.70;99.50;;;;;;4590175;19;20010;-29
2023/01/06 05:15:55;;;;;;;9.02;6.22;;;12.70;99.60;;;;;;4587768;19;20033;-30
2023/01/06 05:17:27;;;;;;;8.13;5.50;;;12.70;99.50;;;;;;4589086;19;20007;-34
2023/01/06 05:18:58;;;;;;;7.93;4.65;;;12.70;99.60;;;;;;4589229;19;20365;-30
2023/01/06 05:20:29;;;;;;;5.55;4.15;;;12.70;99.60;;;;;;4588846;19;20012;-29
2023/01/06 05:22:01;;;;;;;6.85;4.47;;;12.70;99.60;;;;;;4589509;19;20416;-33
2023/01/06 05:23:32;;;;;;;4.50;3.45;;;12.70;99.50;;;;;;4589325;19;20015;-34
2023/01/06 05:25:03;;;;;;;5.38;3.35;;;12.80;99.50;;;;;;4586809;19;20070;-33
2023/01/06 05:26:34;;;;;;;5.85;3.45;;;12.80;99.40;;;;;;4585382;19;20015;-32
2023/01/06 05:28:06;;;;;;;5.05;3.72;;;12.80;99.40;;;;;;4588983;19;20019;-28
2023/01/06 05:29:37;;;;;;;5.93;3.58;;;12.80;99.50;;;;;;4591001;19;20015;-34
2023/01/06 05:31:08;;;;;;;3.55;2.75;;;12.70;99.50;;;;;;4589454;19;20034;-29
2023/01/06 05:32:40;;;;;;;4.05;3.08;;;12.80;99.50;;;;;;4589831;19;20014;-33
2023/01/06 05:34:11;;;;;;;4.07;2.60;;;12.80;99.40;;;;;;4589182;19;20341;-27
2023/01/06 05:35:42;;;;;;;3.78;2.80;;;12.80;99.40;;;;;;4587700;19;20108;-31
2023/01/06 05:37:13;;;;;;;4.20;3.17;;;12.80;99.50;;;;;;4589773;19;20014;-29
2023/01/06 05:38:53;;;;;;;3.60;2.75;;;12.80;99.50;;;;;;4587582;19;20018;-29
2023/01/06 05:40:24;;;;;;;5.10;3.37;;;12.80;99.50;;;;;;4588501;19;20471;-29
2023/01/06 05:41:55;;;;;;;3.97;3.03;;;12.80;99.50;;;;;;4589370;19;20501;-30
2023/01/06 05:43:27;;;;;;;4.07;3.08;;;12.80;99.50;;;;;;4589635;19;20186;-27
2023/01/06 05:44:58;;;;;;;4.05;2.83;;;12.80;99.60;;;;;;4588598;19;20015;-30
2023/01/06 05:46:29;;;;;;;3.90;2.80;;;12.80;99.60;;;;;;4589394;19;20023;-30
2023/01/06 05:48:01;;;;;;;3.28;1.85;;;12.80;99.40;;;;;;4588628;19;20566;-33
2023/01/06 05:49:32;;;;;;;;;;;12.80;99.30;;;;;;4589977;19;20014;-30
2023/01/06 05:51:05;;;;;;;1.88;1.48;;;12.80;99.00;;;;;;4589397;19;19937;-28
2023/01/06 05:52:36;;;;;;;2.53;1.70;;;12.70;98.70;;;;;;4590359;19;20023;-30
2023/01/06 05:54:08;;;;;;;3.80;2.38;;;12.70;98.60;;;;;;4588034;19;20014;-30
2023/01/06 05:55:39;;;;;;;3.75;2.80;;;12.80;98.60;;;;;;4589023;19;20023;-28
2023/01/06 05:57:11;;;;;;;6.97;4.00;;;12.80;98.60;;;;;;4589949;19;20015;-31
2023/01/06 05:58:46;;;;;;;6.32;4.40;;;12.80;98.70;;;;;;4589036;19;20019;-31
2023/01/06 06:00:18;;;;;;;5.63;3.50;;;12.80;98.90;;;;;;4589896;19;20058;-33
2023/01/06 06:01:49;;;;;;;5.43;3.67;;;12.80;99.00;;;;;;4587951;19;20015;-36
2023/01/06 06:03:20;;;;;;;6.70;4.25;;;12.80;99.10;;;;;;4588084;19;20007;-27
2023/01/06 06:04:51;;;;;;;9.80;5.43;;;12.80;99.20;;;;;;4588473;19;20010;-30
2023/01/06 06:06:24;;;;;;;7.97;4.82;;;12.80;99.40;;;;;;4586665;19;20015;-30
2023/01/06 06:07:55;;;;;;;10.50;6.60;;;12.80;99.40;;;;;;4586681;19;20010;-30
2023/01/06 06:09:26;;;;;;;9.30;6.57;;;12.70;99.50;;;;;;4591927;19;20351;-31
2023/01/06 06:11:04;;;;;;;6.88;5.03;;;12.70;99.50;;;;;;4592818;19;20559;-29
2023/01/06 06:12:36;;;;;;;49.30;29.27;;;12.70;99.60;;;;;;4592306;19;20014;-28
2023/01/06 06:14:08;;;;;;;100.68;58.72;;;12.70;99.60;;;;;;4591793;19;20406;-29
2023/01/06 06:15:39;;;;;;;72.15;42.35;;;12.70;99.70;;;;;;4591910;19;20038;-28
2023/01/06 06:17:10;;;;;;;31.25;20.40;;;12.70;99.70;;;;;;4591218;19;20488;-29
2023/01/06 06:18:42;;;;;;;23.75;15.63;;;12.70;99.80;;;;;;4590875;19;20006;-28
2023/01/06 06:20:13;;;;;;;9.50;6.33;;;12.70;99.80;;;;;;4590936;19;20047;-28
2023/01/06 06:21:44;;;;;;;7.80;5.35;;;12.70;99.70;;;;;;4590302;19;20040;-31
2023/01/06 06:23:18;;;;;;;7.03;4.25;;;12.70;99.70;;;;;;4589324;19;20014;-31
2023/01/06 06:24:49;;;;;;;6.77;3.83;;;12.70;99.70;;;;;;4590386;19;20022;-29
2023/01/06 06:26:20;;;;;;;3.65;2.75;;;12.70;99.80;;;;;;4590514;19;20472;-31
2023/01/06 06:27:56;;;;;;;4.32;3.00;;;12.70;99.70;;;;;;4592579;19;20018;-32
2023/01/06 06:29:27;;;;;;;3.73;2.60;;;12.80;99.60;;;;;;4591728;19;20018;-29
2023/01/06 06:31:12;;;;;;;4.25;2.70;;;12.70;99.40;;;;;;4591188;19;20558;-39
2023/01/06 06:32:44;;;;;;;3.67;2.33;;;12.80;99.40;;;;;;4590437;19;20044;-30
2023/01/06 06:34:15;;;;;;;4.00;2.17;;;12.80;99.30;;;;;;4591398;19;20023;-31
2023/01/06 06:35:56;;;;;;;4.32;2.47;;;12.80;99.30;;;;;;4590542;19;20352;-31
2023/01/06 06:37:27;;;;;;;2.50;1.95;;;12.80;99.20;;;;;;4590557;19;20011;-30
2023/01/06 06:38:59;;;;;;;4.18;2.20;;;12.80;99.20;;;;;;4590407;19;20021;-30
2023/01/06 06:40:30;;;;;;;3.40;2.33;;;12.70;99.10;;;;;;4590208;19;20011;-32
2023/01/06 06:42:01;;;;;;;3.97;2.10;;;12.70;99.10;;;;;;4589972;19;20019;-31
2023/01/06 06:43:32;;;;;;;3.63;1.95;;;12.70;99.00;;;;;;4591507;19;20352;-33
2023/01/06 06:45:04;;;;;;;3.35;1.80;;;12.80;99.00;;;;;;4591641;19;20056;-28
2023/01/06 06:46:35;;;;;;;2.97;1.83;;;12.70;99.00;;;;;;4592708;19;20022;-30
2023/01/06 06:48:07;;;;;;;4.13;1.83;;;12.70;98.90;;;;;;4593690;19;20021;-31
2023/01/06 06:49:38;;;;;;;3.58;1.73;;;12.70;98.80;;;;;;4593136;19;20029;-35
2023/01/06 06:51:11;;;;;;;2.65;1.67;;;12.70;98.80;;;;;;4591464;19;20086;-34
2023/01/06 06:52:42;;;;;;;2.87;1.43;;;12.70;98.80;;;;;;4592392;19;20010;-31
2023/01/06 06:54:13;;;;;;;2.92;1.77;;;12.70;98.70;;;;;;4591454;19;20023;-32
2023/01/06 06:55:44;;;;;;;;;;;12.70;98.70;;;;;;4593724;19;20039;-29
2023/01/06 06:57:15;;;;;;;2.90;1.53;;;12.70;98.90;;;;;;4591152;19;19922;-30
2023/01/06 06:58:47;;;;;;;2.35;1.30;;;12.70;98.60;;;;;;4591242;19;20015;-29
2023/01/06 07:00:18;;;;;;;2.63;1.55;;;12.70;98.60;;;;;;4592618;19;20407;-28
2023/01/06 07:01:50;;;;;;;3.00;1.70;;;12.60;98.50;;;;;;4593156;19;20018;-30
2023/01/06 07:03:22;;;;;;;2.93;1.93;;;12.60;98.40;;;;;;4592251;19;20035;-28
2023/01/06 07:04:53;;;;;;;2.05;1.17;;;12.60;98.30;;;;;;4592322;19;20653;-30
2023/01/06 07:06:25;;;;;;;2.10;1.55;;;12.60;98.30;;;;;;4591537;19;20520;-34
2023/01/06 07:07:56;;;;;;;2.72;1.73;;;12.60;98.30;;;;;;4592072;19;20488;-36
2023/01/06 07:09:27;;;;;;;2.03;1.52;;;12.70;98.30;;;;;;4593077;19;20011;-28
2023/01/06 07:10:59;;;;;;;2.47;1.27;;;12.60;98.20;;;;;;4592862;19;20011;-33
2023/01/06 07:12:30;;;;;;;1.80;1.40;;;12.60;98.20;;;;;;4591023;19;20533;-33
2023/01/06 07:14:01;;;;;;;2.45;1.80;;;12.60;98.30;;;;;;4592054;19;20014;-34
2023/01/06 07:15:32;;;;;;;2.40;1.52;;;12.60;98.30;;;;;;4592369;19;20011;-31
2023/01/06 07:17:03;;;;;;;3.13;1.90;;;12.70;98.30;;;;;;4591272;19;20014;-33
2023/01/06 07:18:35;;;;;;;3.55;2.35;;;12.70;98.30;;;;;;4590245;19;20471;-29
2023/01/06 07:20:07;;;;;;;2.63;2.00;;;12.60;98.20;;;;;;4591869;19;20019;-31
2023/01/06 07:21:38;;;;;;;;;;;12.70;98.20;;;;;;4594082;19;20024;-32
2023/01/06 07:23:10;;;;;;;3.38;2.08;;;12.70;98.20;;;;;;4591991;19;19918;-33
2023/01/06 07:24:41;;;;;;;7.00;5.65;;;12.70;98.10;;;;;;4592079;19;20033;-31
2023/01/06 07:26:14;;;;;;;19.20;16.27;;;12.70;98.00;;;;;;4592367;19;20531;-31
2023/01/06 07:27:45;;;;;;;27.50;23.57;;;12.70;97.90;;;;;;4592580;19;20552;-30
2023/01/06 07:29:17;;;;;;;25.38;22.17;;;12.70;97.80;;;;;;4592472;19;20452;-33
2023/01/06 07:30:48;;;;;;;17.02;14.48;;;12.70;97.80;;;;;;4590769;19;20428;-30
2023/01/06 07:32:19;;;;;;;;;;;12.80;97.90;;;;;;4592220;19;20014;-31
2023/01/06 07:33:51;;;;;;;7.00;5.53;;;12.80;97.90;;;;;;4591415;19;19915;-28
2023/01/06 07:35:22;;;;;;;3.93;2.77;;;12.80;97.90;;;;;;4588342;19;20051;-34
2023/01/06 07:36:54;;;;;;;2.42;1.73;;;12.80;97.90;;;;;;4589992;19;20459;-32
2023/01/06 07:38:26;;;;;;;3.80;2.20;;;12.80;98.00;;;;;;4590062;19;20014;-32
2023/01/06 07:39:57;;;;;;;3.22;2.13;;;12.80;98.00;;;;;;4590283;19;20033;-28
2023/01/06 07:41:30;;;;;;;3.78;1.70;;;12.80;98.00;;;;;;4592535;19;20018;-29
2023/01/06 07:43:08;;;;;;;3.70;2.03;;;12.80;98.00;;;;;;4591643;19;20567;-28
2023/01/06 07:44:40;;;;;;;3.50;1.70;;;12.80;98.00;;;;;;4592438;19;20363;-30
2023/01/06 07:46:11;;;;;;;2.83;2.00;;;12.80;98.00;;;;;;4590381;19;20018;-31
2023/01/06 07:47:42;;;;;;;2.17;1.60;;;12.80;98.10;;;;;;4590919;19;20363;-30
2023/01/06 07:49:13;;;;;;;2.47;1.75;;;12.30;97.80;;;;;;4591984;19;20036;-29
2023/01/06 07:50:45;;;;;;;2.70;2.20;;;10.60;99.80;;;;;;4590707;19;20082;-29
2023/01/06 07:52:16;;;;;;;2.58;2.30;;;9.60;99.90;;;;;;4589701;19;20491;-29
2023/01/06 07:53:47;;;;;;;3.55;2.72;;;9.10;99.90;;;;;;4592730;19;20033;-31
2023/01/06 07:55:20;;;;;;;3.83;3.07;;;8.80;99.90;;;;;;4591994;19;20029;-31
2023/01/06 07:56:51;;;;;;;4.32;3.03;;;8.70;99.90;;;;;;4592527;19;20460;-31
2023/01/06 07:58:23;;;;;;;5.07;3.08;;;8.60;99.90;;;;;;4591592;19;20018;-30
2023/01/06 07:59:54;;;;;;;4.10;2.90;;;8.60;99.90;;;;;;4590198;19;20355;-27
2023/01/06 08:01:27;;;;;;;3.38;2.80;;;9.20;99.90;;;;;;4591387;19;20033;-28
2023/01/06 08:02:58;;;;;;;4.43;2.73;;;10.00;99.90;;;;;;4590233;19;20011;-32
2023/01/06 08:04:30;;;;;;;4.32;3.20;;;10.60;99.90;;;;;;4590163;19;20575;-32
2023/01/06 08:06:08;;;;;;;4.18;3.38;;;11.00;99.90;;;;;;4591058;19;20037;-30
2023/01/06 08:07:39;;;;;;;6.63;4.30;;;11.40;99.90;;;;;;4589451;19;20002;-32
2023/01/06 08:09:11;;;;;;;5.30;3.83;;;11.50;99.90;;;;;;4588577;19;20545;-29
2023/01/06 08:10:42;;;;;;;4.97;3.53;;;11.70;99.90;;;;;;4589366;19;20419;-29
2023/01/06 08:12:13;;;;;;;4.60;3.55;;;11.70;99.70;;;;;;4592534;19;20011;-26
2023/01/06 08:13:44;;;;;;;3.65;2.60;;;11.90;99.70;;;;;;4591104;19;20018;-31
2023/01/06 08:15:16;;;;;;;4.45;3.00;;;11.90;99.40;;;;;;4590804;19;20022;-33
2023/01/06 08:16:47;;;;;;;3.63;2.53;;;12.00;99.40;;;;;;4589461;19;20484;-34
2023/01/06 08:18:19;;;;;;;4.15;2.70;;;12.00;99.20;;;;;;4591803;19;20078;-30